Time;durP1;ratioP1;P1;durP2;ratioP2;P2;SDS_P1;SDS_P2;PMS_P1;PMS_P2;Temp;Humidity;BMP_temperature;BMP_pressure;BME280_temperature;BME280_humidity;BME280_pressure;Samples;Min_cycle;Max_cycle;Signal;HPM_P1;HPM_P2
2023/12/23 00:00:45;;;;;;;19.30;9.05;;;;;;;2.77;100.00;96419.28;5076484;28;20036;-62
2023/12/23 00:03:10;;;;;;;19.45;10.25;;;;;;;2.85;100.00;96410.22;5079503;28;20040;-62
2023/12/23 00:05:36;;;;;;;14.20;6.32;;;;;;;2.89;100.00;96419.41;5076289;28;20071;-62
2023/12/23 00:08:02;;;;;;;16.25;7.78;;;;;;;2.83;100.00;96418.91;5074407;28;20079;-63
2023/12/23 00:10:29;;;;;;;20.27;9.32;;;;;;;2.81;100.00;96407.94;5072132;28;20052;-62
2023/12/23 00:12:55;;;;;;;20.20;9.73;;;;;;;2.83;100.00;96411.22;5076719;28;20721;-60
2023/12/23 00:15:21;;;;;;;18.02;7.82;;;;;;;2.86;100.00;96390.53;5054803;28;20108;-63
2023/12/23 00:17:47;;;;;;;22.30;9.25;;;;;;;2.87;100.00;96399.88;5061095;28;20047;-63
2023/12/23 00:20:13;;;;;;;19.50;9.55;;;;;;;2.91;100.00;96415.03;5073354;28;20607;-62
2023/12/23 00:22:39;;;;;;;18.77;9.40;;;;;;;2.89;100.00;96406.56;5077486;28;20048;-62
2023/12/23 00:25:05;;;;;;;22.10;10.93;;;;;;;2.85;99.43;96391.44;5074549;28;20397;-62
2023/12/23 00:27:31;;;;;;;22.83;9.57;;;;;;;2.87;98.99;96390.47;5080809;28;20072;-60
2023/12/23 00:29:57;;;;;;;23.10;11.18;;;;;;;2.91;99.12;96391.94;5079361;28;20052;-62
2023/12/23 00:32:23;;;;;;;18.50;9.00;;;;;;;2.94;98.92;96406.31;5080882;28;20048;-62
2023/12/23 00:34:49;;;;;;;23.35;10.45;;;;;;;2.88;98.79;96394.66;5071897;28;20050;-61
2023/12/23 00:37:15;;;;;;;22.52;11.77;;;;;;;2.87;98.82;96372.50;5077177;28;20048;-62
2023/12/23 00:39:41;;;;;;;22.92;10.43;;;;;;;2.97;98.86;96376.19;5075435;28;20181;-61
2023/12/23 00:42:07;;;;;;;20.52;9.77;;;;;;;2.99;98.50;96366.66;5073224;28;20032;-61
2023/12/23 00:44:33;;;;;;;20.75;9.98;;;;;;;3.02;98.24;96363.09;5076130;28;20044;-61
2023/12/23 00:46:59;;;;;;;24.42;9.80;;;;;;;3.08;98.43;96355.06;5051156;28;20046;-62
2023/12/23 00:49:24;;;;;;;26.85;12.18;;;;;;;3.12;98.10;96353.97;5075126;28;20066;-62
2023/12/23 00:51:50;;;;;;;26.27;12.50;;;;;;;3.02;97.62;96328.91;5081070;28;20093;-63
2023/12/23 00:54:17;;;;;;;26.70;11.27;;;;;;;3.15;97.60;96347.81;5050706;28;20036;-60
2023/12/23 00:56:43;;;;;;;20.08;9.93;;;;;;;2.87;97.08;96298.13;5073747;28;20067;-62
2023/12/23 00:59:09;;;;;;;25.08;10.95;;;;;;;3.12;96.85;96330.03;5040610;28;20064;-63
2023/12/23 01:01:35;;;;;;;22.63;10.52;;;;;;;3.23;96.57;96343.06;5073185;28;20040;-63
2023/12/23 01:04:01;;;;;;;23.13;11.38;;;;;;;3.22;96.10;96342.25;5086718;28;20052;-63
2023/12/23 01:06:26;;;;;;;25.27;10.43;;;;;;;3.28;95.74;96331.63;5069735;28;20101;-64
2023/12/23 01:08:52;;;;;;;29.15;11.77;;;;;;;3.12;95.36;96292.38;5073452;28;20047;-63
2023/12/23 01:11:19;;;;;;;26.05;10.25;;;;;;;3.43;95.18;96327.31;5071357;28;20078;-63
2023/12/23 01:13:45;;;;;;;31.90;11.35;;;;;;;3.51;95.04;96319.16;5089593;28;20041;-62
2023/12/23 01:16:11;;;;;;;22.83;10.95;;;;;;;3.54;95.07;96319.78;5073341;28;20032;-63
2023/12/23 01:18:37;;;;;;;23.85;9.85;;;;;;;3.52;94.25;96326.75;5073933;28;20119;-63
2023/12/23 01:21:04;;;;;;;22.83;10.90;;;;;;;3.55;93.94;96331.72;5073509;28;20051;-63
2023/12/23 01:23:29;;;;;;;21.58;9.23;;;;;;;3.37;93.92;96282.28;5070926;28;20423;-62
2023/12/23 01:25:55;;;;;;;22.38;9.98;;;;;;;3.58;93.18;96320.44;5070375;28;20044;-63
2023/12/23 01:28:21;;;;;;;21.38;9.00;;;;;;;3.55;93.01;96326.59;5075695;28;20079;-64
2023/12/23 01:30:47;;;;;;;24.63;10.13;;;;;;;3.50;92.61;96325.22;5079851;28;20048;-62
2023/12/23 01:33:12;;;;;;;26.05;10.95;;;;;;;3.44;92.63;96317.88;5067543;28;20071;-62
2023/12/23 01:35:39;;;;;;;23.98;10.10;;;;;;;3.47;92.33;96309.97;5071036;28;20044;-61
2023/12/23 01:38:05;;;;;;;22.35;10.68;;;;;;;3.53;92.54;96320.72;5070434;28;20049;-62
2023/12/23 01:40:31;;;;;;;22.02;10.40;;;;;;;3.56;92.04;96320.50;5055617;28;20059;-62
2023/12/23 01:42:58;;;;;;;23.77;10.38;;;;;;;3.55;91.91;96303.47;5071618;28;20044;-62
2023/12/23 01:45:24;;;;;;;27.30;10.52;;;;;;;3.58;91.64;96310.97;5073240;28;20603;-63
2023/12/23 01:47:50;;;;;;;19.17;8.98;;;;;;;3.59;91.92;96314.38;5073518;28;20122;-62
2023/12/23 01:50:17;;;;;;;18.98;8.68;;;;;;;3.49;90.91;96296.13;5066030;28;20046;-62
2023/12/23 01:52:44;;;;;;;17.08;8.50;;;;;;;3.41;91.00;96291.44;5075347;28;20040;-61
2023/12/23 01:55:10;;;;;;;21.13;9.57;;;;;;;3.45;91.32;96275.88;5071405;28;20044;-62
2023/12/23 01:57:36;;;;;;;20.70;9.25;;;;;;;3.53;91.23;96271.09;5069286;28;20074;-63
2023/12/23 02:00:03;;;;;;;22.73;9.95;;;;;;;3.60;90.88;96270.66;5051128;28;20072;-63
2023/12/23 02:02:38;;;;;;;23.15;10.15;;;;;;;3.41;90.64;96234.97;5082148;28;20070;-62
2023/12/23 02:05:06;;;;;;;22.17;9.35;;;;;;;3.53;90.00;96255.69;5070649;28;20195;-63
2023/12/23 02:07:33;;;;;;;23.67;9.95;;;;;;;3.55;90.13;96262.41;5059842;28;20036;-61
2023/12/23 02:09:59;;;;;;;17.08;6.82;;;;;;;3.58;89.99;96261.38;5054798;28;20086;-63
2023/12/23 02:12:53;;;;;;;19.05;8.98;;;;;;;3.54;90.65;96252.22;5077241;28;20043;-63
2023/12/23 02:15:21;;;;;;;18.73;8.45;;;;;;;3.49;90.14;96259.38;5066829;28;20499;-62
2023/12/23 02:17:47;;;;;;;16.17;7.80;;;;;;;3.45;90.24;96261.31;5079098;28;20048;-62
2023/12/23 02:20:12;;;;;;;13.38;5.88;;;;;;;3.22;90.78;96221.63;5074158;28;20523;-61
2023/12/23 02:22:38;;;;;;;18.63;9.25;;;;;;;3.39;90.85;96238.56;5089692;28;20090;-63
2023/12/23 02:25:06;;;;;;;21.35;9.38;;;;;;;3.49;91.57;96239.66;5064735;28;20396;-64
2023/12/23 02:27:46;;;;;;;19.90;8.50;;;;;;;3.51;91.07;96242.13;5085333;28;20101;-64
2023/12/23 02:30:15;;;;;;;17.50;9.18;;;;;;;3.48;91.46;96238.00;5070342;28;20044;-62
2023/12/23 02:32:42;;;;;;;21.33;9.57;;;;;;;3.48;91.22;96230.28;5065146;28;20047;-61
2023/12/23 02:35:08;;;;;;;14.30;7.10;;;;;;;3.37;91.39;96207.84;5067599;28;20044;-62
2023/12/23 02:37:35;;;;;;;20.85;9.60;;;;;;;3.38;91.33;96213.81;5072780;28;20503;-63
2023/12/23 02:40:01;;;;;;;19.88;8.15;;;;;;;3.44;91.56;96220.31;5072494;28;20603;-62
2023/12/23 02:42:30;;;;;;;20.02;8.60;;;;;;;3.35;91.20;96204.53;5072522;28;20040;-63
2023/12/23 02:44:56;;;;;;;13.80;7.53;;;;;;;3.52;91.29;96241.19;5091438;28;20071;-63
2023/12/23 02:47:22;;;;;;;14.23;7.20;;;;;;;3.42;91.60;96223.78;5072153;28;20527;-64
2023/12/23 02:49:47;;;;;;;10.25;5.35;;;;;;;3.47;91.66;96228.66;5065089;28;20147;-61
2023/12/23 02:52:14;;;;;;;12.95;6.13;;;;;;;3.19;91.52;96185.06;5070793;28;20040;-63
2023/12/23 02:54:40;;;;;;;14.40;6.57;;;;;;;3.35;92.20;96225.06;5071767;28;20581;-62
2023/12/23 02:57:06;;;;;;;11.80;6.15;;;;;;;3.36;93.42;96221.59;5064281;28;20431;-62
2023/12/23 02:59:32;;;;;;;14.68;6.45;;;;;;;3.34;93.52;96220.06;5068151;28;20032;-62
2023/12/23 03:01:58;;;;;;;12.05;5.85;;;;;;;3.33;93.71;96219.22;5073022;28;20122;-64
2023/12/23 03:04:24;;;;;;;9.88;4.68;;;;;;;3.27;94.23;96221.34;5090934;28;20089;-62
2023/12/23 03:06:50;;;;;;;11.75;5.40;;;;;;;3.21;94.34;96214.00;5074384;28;20044;-65
2023/12/23 03:09:16;;;;;;;12.70;6.20;;;;;;;3.15;94.65;96211.81;5072808;28;20423;-64
2023/12/23 03:11:43;;;;;;;11.27;6.05;;;;;;;3.26;94.69;96220.50;5079159;28;20048;-63
2023/12/23 03:14:09;;;;;;;9.77;5.45;;;;;;;3.31;94.99;96223.63;5074725;28;20516;-63
2023/12/23 03:16:35;;;;;;;9.82;5.40;;;;;;;3.13;94.76;96198.25;5091902;28;20591;-61
2023/12/23 03:19:02;;;;;;;10.93;5.70;;;;;;;3.26;95.14;96220.50;5072725;28;20044;-62
2023/12/23 03:21:29;;;;;;;11.73;5.72;;;;;;;3.28;94.81;96228.13;5056803;28;20822;-63
2023/12/23 03:23:55;;;;;;;9.35;5.10;;;;;;;3.04;94.82;96191.09;5081875;28;20043;-63
2023/12/23 03:26:21;;;;;;;9.70;4.93;;;;;;;3.24;95.22;96218.97;5063237;28;20128;-62
2023/12/23 03:28:47;;;;;;;10.75;5.03;;;;;;;3.02;95.47;96175.00;5055814;28;20060;-61
2023/12/23 03:31:13;;;;;;;9.23;4.80;;;;;;;3.15;95.71;96204.09;5076267;28;20044;-62
2023/12/23 03:33:42;;;;;;;9.75;5.15;;;;;;;3.01;95.78;96168.22;5074568;28;20039;-63
2023/12/23 03:36:08;;;;;;;7.13;4.30;;;;;;;3.23;95.74;96200.19;5097411;28;20044;-63
2023/12/23 03:38:35;;;;;;;6.75;3.90;;;;;;;3.25;95.89;96198.31;5075382;28;20032;-63
2023/12/23 03:41:01;;;;;;;7.80;4.07;;;;;;;3.29;95.92;96196.41;5080143;28;20044;-63
2023/12/23 03:43:27;;;;;;;8.98;4.32;;;;;;;3.28;96.05;96199.91;5073240;28;20067;-63
2023/12/23 03:45:53;;;;;;;8.02;4.05;;;;;;;3.29;96.21;96215.22;5082352;28;20427;-61
2023/12/23 03:48:19;;;;;;;7.25;3.70;;;;;;;3.28;96.30;96211.00;5071447;28;20100;-61
2023/12/23 03:50:45;;;;;;;8.10;4.22;;;;;;;3.09;96.30;96171.16;5075404;28;20423;-62
2023/12/23 03:53:11;;;;;;;8.75;3.58;;;;;;;3.38;96.40;96206.94;5056449;28;20059;-62
2023/12/23 03:55:39;;;;;;;7.97;4.30;;;;;;;3.28;96.12;96197.31;5074728;28;20127;-62
2023/12/23 03:58:06;;;;;;;7.38;3.60;;;;;;;3.38;96.44;96203.53;5076222;28;20039;-64
2023/12/23 04:00:32;;;;;;;7.93;3.95;;;;;;;3.38;96.45;96213.81;5076428;28;20044;-64
2023/12/23 04:02:58;;;;;;;8.30;3.88;;;;;;;3.18;96.50;96185.97;5072655;28;20224;-64
2023/12/23 04:05:24;;;;;;;8.98;3.92;;;;;;;3.40;96.26;96212.00;5073367;28;20048;-61
2023/12/23 04:07:50;;;;;;;7.47;4.10;;;;;;;3.38;96.62;96222.34;5074920;28;20644;-63
2023/12/23 04:10:17;;;;;;;7.45;4.15;;;;;;;3.35;96.29;96216.56;5059442;28;20056;-63
2023/12/23 04:12:46;;;;;;;9.70;4.10;;;;;;;3.34;96.62;96215.75;5042004;28;20040;-63
2023/12/23 04:15:11;;;;;;;8.70;3.78;;;;;;;3.40;96.14;96222.25;5076536;28;20044;-62
2023/12/23 04:17:40;;;;;;;7.68;3.63;;;;;;;3.34;96.16;96220.88;5064769;28;20566;-62
2023/12/23 04:20:07;;;;;;;8.65;4.03;;;;;;;3.37;96.53;96223.25;5077647;28;20035;-63
2023/12/23 04:22:34;;;;;;;7.30;4.10;;;;;;;3.41;96.72;96222.13;5081716;28;20035;-61
2023/12/23 04:25:00;;;;;;;9.30;4.47;;;;;;;3.44;96.58;96218.56;5084568;28;20040;-61
2023/12/23 04:27:26;;;;;;;9.02;4.43;;;;;;;3.24;96.40;96185.59;5072298;28;20044;-62
2023/12/23 04:29:52;;;;;;;8.30;4.43;;;;;;;3.48;96.36;96211.50;5056060;28;20565;-61
2023/12/23 04:32:18;;;;;;;4.82;2.90;;;;;;;3.47;96.35;96230.38;5072638;28;20053;-63
2023/12/23 04:34:45;;;;;;;6.43;3.30;;;;;;;3.39;96.44;96212.91;5074470;28;20055;-63
2023/12/23 04:37:10;;;;;;;9.50;4.07;;;;;;;3.34;96.74;96204.66;5047712;28;20113;-62
2023/12/23 04:39:37;;;;;;;8.20;3.95;;;;;;;3.46;96.73;96215.91;5067690;28;20089;-63
2023/12/23 04:42:04;;;;;;;6.95;4.25;;;;;;;3.47;96.50;96209.84;5077500;28;20040;-63
2023/12/23 04:44:31;;;;;;;11.02;4.72;;;;;;;3.33;96.77;96172.19;5069707;28;20444;-61
2023/12/23 04:46:57;;;;;;;6.60;3.92;;;;;;;3.55;96.73;96180.22;5042833;28;20135;-63
2023/12/23 04:49:24;;;;;;;8.80;4.35;;;;;;;3.59;96.69;96186.81;5077862;28;20040;-63
2023/12/23 04:51:51;;;;;;;11.30;4.25;;;;;;;3.39;96.46;96164.94;5042606;28;20067;-64
2023/12/23 04:54:17;;;;;;;9.82;4.88;;;;;;;3.48;96.78;96190.97;5069638;28;20089;-61
2023/12/23 04:56:43;;;;;;;9.55;4.85;;;;;;;3.36;96.42;96159.16;5067912;28;20044;-62
2023/12/23 04:59:09;;;;;;;9.80;5.18;;;;;;;3.53;96.69;96201.78;5078753;28;20036;-63
2023/12/23 05:01:35;;;;;;;11.45;4.80;;;;;;;3.58;96.74;96197.16;5089053;28;20563;-62
2023/12/23 05:04:01;;;;;;;8.63;4.75;;;;;;;3.40;96.12;96158.09;5075948;28;20040;-62
2023/12/23 05:06:27;;;;;;;11.60;5.35;;;;;;;3.62;95.82;96204.59;5081150;28;20037;-62
2023/12/23 05:08:53;;;;;;;10.02;5.03;;;;;;;3.63;96.38;96202.84;5079454;28;20087;-61
2023/12/23 05:11:19;;;;;;;9.25;4.88;;;;;;;3.67;95.85;96204.28;5091634;28;20097;-61
2023/12/23 05:13:45;;;;;;;11.43;5.75;;;;;;;3.64;96.01;96194.22;5065590;28;20044;-63
2023/12/23 05:16:12;;;;;;;9.35;4.18;;;;;;;3.66;95.88;96200.94;5071507;28;20072;-62
2023/12/23 05:18:38;;;;;;;10.50;5.38;;;;;;;3.55;96.10;96198.19;5089031;28;20503;-62
2023/12/23 05:21:04;;;;;;;10.10;5.45;;;;;;;3.63;96.43;96215.69;5067553;28;20040;-63
2023/12/23 05:23:30;;;;;;;10.95;5.07;;;;;;;3.59;96.42;96207.34;5073545;28;20040;-63
2023/12/23 05:25:57;;;;;;;9.80;5.05;;;;;;;3.55;96.82;96210.22;5070558;28;20144;-62
2023/12/23 05:28:23;;;;;;;10.75;5.60;;;;;;;3.56;97.22;96204.97;5057326;28;20850;-63
2023/12/23 05:30:49;;;;;;;16.98;6.43;;;;;;;3.28;97.24;96162.22;5071063;28;20139;-62
2023/12/23 05:33:17;;;;;;;14.00;6.78;;;;;;;3.58;97.42;96198.00;5077867;28;20108;-62
2023/12/23 05:35:43;;;;;;;12.40;6.05;;;;;;;3.65;97.49;96198.44;5071517;28;20094;-63
2023/12/23 05:38:09;;;;;;;13.98;6.82;;;;;;;3.66;97.12;96203.50;5071028;28;20047;-62
2023/12/23 05:40:35;;;;;;;11.05;6.00;;;;;;;3.65;97.31;96201.00;5073266;28;20071;-62
2023/12/23 05:43:02;;;;;;;14.48;6.03;;;;;;;3.67;97.17;96201.72;5073637;28;20052;-63
2023/12/23 05:45:28;;;;;;;12.13;5.80;;;;;;;3.42;96.69;96169.06;5082423;28;20036;-63
2023/12/23 05:47:54;;;;;;;13.02;6.28;;;;;;;3.65;96.45;96206.97;5073555;28;20071;-63
2023/12/23 05:50:20;;;;;;;13.30;6.70;;;;;;;3.65;96.52;96186.44;5076032;28;20064;-62
2023/12/23 05:52:45;;;;;;;10.57;5.68;;;;;;;3.68;96.52;96201.63;5066248;28;20082;-64
2023/12/23 05:55:11;;;;;;;11.85;6.03;;;;;;;3.58;96.37;96195.44;5082226;28;20146;-62
2023/12/23 05:57:37;;;;;;;12.73;5.53;;;;;;;3.67;96.38;96214.56;5063352;28;20032;-62
2023/12/23 06:00:05;;;;;;;15.98;6.35;;;;;;;3.68;96.00;96223.94;5070860;28;20115;-64
2023/12/23 06:02:38;;;;;;;15.50;6.32;;;;;;;3.70;96.43;96217.78;5056734;28;20075;-62
2023/12/23 06:05:04;;;;;;;12.65;6.78;;;;;;;3.69;96.42;96231.53;5079996;28;20055;-64
2023/12/23 06:07:31;;;;;;;15.73;6.05;;;;;;;3.64;96.14;96207.06;5079430;28;20035;-63
2023/12/23 06:09:57;;;;;;;20.17;8.07;;;;;;;3.45;96.34;96165.50;5072938;28;20105;-62
2023/12/23 06:12:23;;;;;;;14.68;6.95;;;;;;;3.68;96.16;96211.91;5073002;28;20131;-63
2023/12/23 06:14:51;;;;;;;16.40;6.80;;;;;;;3.70;96.39;96222.09;5075139;28;20097;-63
2023/12/23 06:17:17;;;;;;;14.80;6.88;;;;;;;3.66;96.17;96215.50;5086761;28;20752;-63
2023/12/23 06:19:43;;;;;;;14.40;6.95;;;;;;;3.64;95.92;96223.31;5075736;28;20036;-63
2023/12/23 06:22:09;;;;;;;14.13;6.00;;;;;;;3.66;96.46;96236.88;5053879;28;20784;-61
2023/12/23 06:24:35;;;;;;;13.27;6.60;;;;;;;3.70;96.08;96234.94;5067366;28;20046;-63
2023/12/23 06:27:01;;;;;;;15.05;7.45;;;;;;;3.72;96.23;96245.91;5070000;28;20037;-61
2023/12/23 06:29:27;;;;;;;22.08;8.38;;;;;;;3.70;96.24;96243.47;5072134;28;20135;-62
2023/12/23 06:31:53;;;;;;;17.27;7.95;;;;;;;3.67;96.25;96250.53;5071730;28;20179;-62
2023/12/23 06:34:19;;;;;;;14.40;6.93;;;;;;;3.55;96.11;96230.75;5073037;28;20579;-62
2023/12/23 06:36:45;;;;;;;19.98;8.30;;;;;;;3.62;96.80;96250.81;5055994;28;20496;-63
2023/12/23 06:39:11;;;;;;;17.15;6.55;;;;;;;3.65;96.61;96250.63;5071363;28;20036;-64
2023/12/23 06:41:37;;;;;;;19.20;7.50;;;;;;;3.61;96.85;96241.44;5077103;28;20042;-62
2023/12/23 06:44:04;;;;;;;18.33;8.60;;;;;;;3.67;96.91;96247.94;5076703;28;20044;-63
2023/12/23 06:46:30;;;;;;;13.93;6.45;;;;;;;3.66;97.23;96248.91;5077341;28;20477;-63
2023/12/23 06:48:56;;;;;;;18.40;8.00;;;;;;;3.43;96.69;96232.31;5075986;28;20124;-63
2023/12/23 06:51:22;;;;;;;19.63;7.78;;;;;;;3.56;96.89;96238.34;5075104;28;20500;-64
2023/12/23 06:53:48;;;;;;;15.30;7.72;;;;;;;3.62;97.07;96249.97;5081333;28;20591;-61
2023/12/23 06:56:14;;;;;;;20.50;9.10;;;;;;;3.58;97.16;96262.19;5070823;28;20036;-62
2023/12/23 06:58:40;;;;;;;12.82;6.50;;;;;;;3.60;97.24;96247.53;5085406;28;20040;-63
2023/12/23 07:01:07;;;;;;;19.38;8.38;;;;;;;3.66;97.13;96246.31;5089021;28;20051;-62
2023/12/23 07:03:33;;;;;;;20.25;7.93;;;;;;;3.64;97.10;96245.59;5087482;28;20050;-62
2023/12/23 07:05:59;;;;;;;20.27;8.98;;;;;;;3.68;97.14;96239.34;5079830;28;20052;-63
2023/12/23 07:08:25;;;;;;;19.42;7.47;;;;;;;3.71;97.30;96241.72;5081487;28;20083;-62
2023/12/23 07:10:50;;;;;;;15.20;7.10;;;;;;;3.67;96.55;96238.50;5083726;28;20139;-65
2023/12/23 07:13:17;;;;;;;17.77;7.68;;;;;;;3.66;96.37;96239.44;5085994;28;20051;-63
2023/12/23 07:15:42;;;;;;;17.58;7.38;;;;;;;3.69;96.65;96254.66;5049620;28;20040;-64
2023/12/23 07:18:09;;;;;;;14.43;6.35;;;;;;;3.67;96.05;96253.09;5068627;28;20036;-62
2023/12/23 07:20:36;;;;;;;14.20;7.60;;;;;;;3.70;95.85;96258.06;5087211;28;20551;-62
2023/12/23 07:23:01;;;;;;;15.50;8.10;;;;;;;3.71;95.68;96259.72;5087876;28;20074;-63
2023/12/23 07:25:27;;;;;;;16.15;6.35;;;;;;;3.71;95.29;96269.97;5087148;28;20503;-63
2023/12/23 07:27:53;;;;;;;15.68;7.85;;;;;;;3.76;95.26;96280.78;5086900;28;20075;-62
2023/12/23 07:30:19;;;;;;;14.02;7.80;;;;;;;3.82;94.79;96286.34;5071529;28;20035;-61
2023/12/23 07:32:45;;;;;;;15.25;7.55;;;;;;;3.80;94.27;96288.22;5068836;28;20040;-62
2023/12/23 07:35:11;;;;;;;11.32;6.22;;;;;;;3.79;93.58;96276.28;5086949;28;20093;-62
2023/12/23 07:37:37;;;;;;;13.77;6.65;;;;;;;3.77;93.15;96285.81;5087185;28;20661;-63
2023/12/23 07:40:04;;;;;;;16.40;7.32;;;;;;;3.80;92.88;96297.66;5085535;28;20040;-63
2023/12/23 07:42:30;;;;;;;15.13;7.10;;;;;;;3.80;91.78;96288.22;5087800;28;20093;-63
2023/12/23 07:44:56;;;;;;;15.10;7.22;;;;;;;3.89;91.90;96294.53;5087913;28;20043;-62
2023/12/23 07:47:22;;;;;;;15.23;6.38;;;;;;;3.95;91.68;96303.59;5086448;28;20040;-62
2023/12/23 07:49:48;;;;;;;11.43;5.43;;;;;;;3.93;91.13;96318.28;5081128;28;20493;-63
2023/12/23 07:52:14;;;;;;;14.65;6.80;;;;;;;3.66;90.37;96267.69;5087072;28;20044;-63
2023/12/23 07:54:40;;;;;;;11.73;6.60;;;;;;;3.97;89.75;96307.72;5086858;28;20041;-63
2023/12/23 07:57:06;;;;;;;12.27;5.75;;;;;;;3.96;89.23;96313.78;5087093;28;20043;-62
2023/12/23 07:59:32;;;;;;;13.98;6.50;;;;;;;3.99;88.30;96318.72;5083426;28;20035;-63
2023/12/23 08:01:59;;;;;;;11.45;5.78;;;;;;;4.01;87.45;96318.63;5086884;28;20587;-62
2023/12/23 08:04:24;;;;;;;12.23;5.72;;;;;;;3.73;86.87;96271.53;5085692;28;20122;-62
2023/12/23 08:06:52;;;;;;;11.25;5.80;;;;;;;3.99;86.67;96316.16;5088268;28;20074;-64
2023/12/23 08:09:18;;;;;;;11.65;5.35;;;;;;;3.99;86.61;96321.28;5085669;28;20028;-64
2023/12/23 08:11:44;;;;;;;8.25;4.63;;;;;;;3.98;86.21;96314.50;5083492;28;20109;-64
2023/12/23 08:14:11;;;;;;;8.20;4.50;;;;;;;3.92;86.31;96312.34;5084864;28;20071;-63
2023/12/23 08:16:37;;;;;;;9.15;4.80;;;;;;;3.91;86.17;96317.56;5086304;28;20047;-62
2023/12/23 08:19:03;;;;;;;6.35;3.72;;;;;;;3.71;85.43;96301.63;5084407;28;20037;-65
2023/12/23 08:21:29;;;;;;;10.88;6.15;;;;;;;3.96;86.02;96325.81;5085782;28;20043;-64
2023/12/23 08:23:55;;;;;;;11.73;5.15;;;;;;;4.02;85.49;96315.16;5088932;28;20073;-64
2023/12/23 08:26:21;;;;;;;8.85;5.03;;;;;;;4.04;85.12;96308.97;5067730;28;20135;-62
2023/12/23 08:28:47;;;;;;;11.23;5.13;;;;;;;4.11;84.89;96325.69;5077649;28;20097;-63
2023/12/23 08:31:13;;;;;;;10.77;6.03;;;;;;;4.11;84.39;96337.69;5082736;28;20097;-65
2023/12/23 08:33:38;;;;;;;8.30;4.88;;;;;;;4.13;84.32;96325.59;5066413;28;20035;-63
2023/12/23 08:36:05;;;;;;;10.45;5.35;;;;;;;4.19;84.07;96320.88;5085330;28;20135;-63
2023/12/23 08:38:31;;;;;;;5.07;3.53;;;;;;;4.20;82.59;96366.22;5085989;28;20423;-63
2023/12/23 08:40:59;;;;;;;10.82;4.97;;;;;;;3.96;82.27;96294.97;5081684;28;20047;-62
2023/12/23 08:43:25;;;;;;;8.32;4.70;;;;;;;4.15;82.40;96327.13;5069881;28;20048;-63
2023/12/23 08:45:51;;;;;;;6.57;4.07;;;;;;;4.11;81.80;96327.41;5084885;28;20047;-63
2023/12/23 08:48:17;;;;;;;7.90;4.22;;;;;;;4.07;81.75;96315.69;5086060;28;20040;-62
2023/12/23 08:50:42;;;;;;;9.77;5.18;;;;;;;4.14;81.86;96337.50;5083643;28;20044;-63
2023/12/23 08:53:08;;;;;;;8.43;4.53;;;;;;;4.12;81.21;96334.22;5083537;28;20059;-64
2023/12/23 08:55:34;;;;;;;9.07;4.82;;;;;;;4.14;81.26;96333.19;5087003;28;20522;-62
2023/12/23 08:58:00;;;;;;;10.88;5.22;;;;;;;4.17;81.20;96330.44;5085270;28;20043;-62
2023/12/23 09:00:26;;;;;;;11.40;4.32;;;;;;;4.22;81.13;96343.00;5079373;28;20040;-61
2023/12/23 09:02:52;;;;;;;9.68;5.38;;;;;;;4.20;80.76;96342.25;5070344;28;20062;-64
2023/12/23 09:05:18;;;;;;;6.40;3.58;;;;;;;4.15;79.38;96350.25;5081326;28;20598;-63
2023/12/23 09:07:44;;;;;;;7.07;3.67;;;;;;;4.09;78.94;96329.25;5084274;28;20726;-63
2023/12/23 09:10:10;;;;;;;14.25;4.32;;;;;;;4.17;79.31;96337.31;5086010;28;20051;-63
2023/12/23 09:12:38;;;;;;;6.63;4.15;;;;;;;4.18;78.95;96346.69;5086621;28;20520;-65
2023/12/23 09:15:05;;;;;;;8.27;4.60;;;;;;;4.15;79.08;96339.97;5084923;28;20069;-64
2023/12/23 09:17:32;;;;;;;8.27;3.95;;;;;;;4.22;79.08;96356.69;5084450;28;20051;-62
2023/12/23 09:19:58;;;;;;;8.10;4.70;;;;;;;4.13;78.38;96346.97;5083799;28;20511;-64
2023/12/23 09:22:24;;;;;;;7.78;4.35;;;;;;;4.17;78.72;96351.00;5082409;28;20032;-63
2023/12/23 09:24:50;;;;;;;9.20;4.93;;;;;;;4.21;78.22;96360.16;5085355;28;20154;-62
2023/12/23 09:27:15;;;;;;;8.43;4.93;;;;;;;4.24;78.94;96367.69;5085233;28;20094;-63
2023/12/23 09:29:41;;;;;;;10.40;4.72;;;;;;;4.23;78.00;96360.91;5083431;28;20512;-62
2023/12/23 09:32:07;;;;;;;9.50;4.95;;;;;;;3.78;77.77;96289.22;5085865;28;20503;-62
2023/12/23 09:34:33;;;;;;;5.85;3.47;;;;;;;4.23;77.86;96360.91;5085177;28;20036;-63
2023/12/23 09:37:00;;;;;;;6.90;3.40;;;;;;;4.28;77.53;96360.63;5083733;28;20054;-65
2023/12/23 09:39:26;;;;;;;3.97;2.70;;;;;;;4.35;77.48;96368.75;5083626;28;20181;-64
2023/12/23 09:41:54;;;;;;;9.07;5.25;;;;;;;4.38;76.69;96358.28;5083312;28;20040;-64
2023/12/23 09:44:21;;;;;;;5.00;3.03;;;;;;;4.50;76.08;96357.53;5056370;28;20472;-65
2023/12/23 09:46:47;;;;;;;5.13;3.40;;;;;;;4.39;75.50;96327.34;5064540;28;20051;-63
2023/12/23 09:49:13;;;;;;;4.30;2.53;;;;;;;4.61;73.02;96355.06;5083105;28;20539;-65
2023/12/23 09:51:38;;;;;;;9.27;3.53;;;;;;;4.63;73.33;96353.25;5064720;28;20048;-65
2023/12/23 09:54:05;;;;;;;5.68;3.67;;;;;;;4.60;72.99;96356.03;5070218;28;20047;-62
2023/12/23 09:56:32;;;;;;;7.55;3.90;;;;;;;4.72;72.93;96357.78;5078547;28;20044;-64
2023/12/23 09:58:57;;;;;;;7.25;4.07;;;;;;;4.78;72.50;96359.16;5088649;28;20079;-63
2023/12/23 10:01:23;;;;;;;7.03;4.07;;;;;;;4.62;72.82;96324.13;5072796;28;20064;-64
2023/12/23 10:03:50;;;;;;;5.85;3.78;;;;;;;4.93;72.07;96363.31;5073246;28;20423;-64
2023/12/23 10:06:18;;;;;;;6.78;3.15;;;;;;;4.91;71.96;96375.47;5063698;28;20136;-62
2023/12/23 10:08:45;;;;;;;4.93;3.22;;;;;;;4.92;71.26;96375.34;5090874;28;20431;-63
2023/12/23 10:11:11;;;;;;;5.05;3.38;;;;;;;4.87;71.24;96366.25;5081755;28;20040;-63
2023/12/23 10:13:37;;;;;;;6.43;4.05;;;;;;;4.84;71.29;96359.59;5083647;28;20645;-61
2023/12/23 10:16:03;;;;;;;6.10;3.55;;;;;;;4.82;70.71;96369.13;5080422;28;20067;-63
2023/12/23 10:18:30;;;;;;;8.60;3.35;;;;;;;4.79;71.14;96363.38;5084322;28;20043;-62
2023/12/23 10:20:57;;;;;;;5.20;3.20;;;;;;;4.83;71.30;96375.94;5092988;28;20044;-64
2023/12/23 10:23:23;;;;;;;8.52;3.75;;;;;;;4.88;71.04;96375.63;5069410;28;20040;-61
2023/12/23 10:25:52;;;;;;;7.82;3.80;;;;;;;4.91;70.78;96372.88;5066365;28;20047;-62
2023/12/23 10:28:19;;;;;;;6.32;3.30;;;;;;;4.72;71.03;96341.53;5082779;28;20040;-61
2023/12/23 10:30:48;;;;;;;5.57;3.00;;;;;;;4.82;70.55;96376.03;5081750;28;20131;-63
2023/12/23 10:33:16;;;;;;;6.05;3.63;;;;;;;4.31;69.85;96306.44;5083082;28;20067;-60
2023/12/23 10:35:47;;;;;;;5.50;2.78;;;;;;;4.63;70.29;96376.41;5076518;28;20131;-62
2023/12/23 10:38:18;;;;;;;4.70;2.83;;;;;;;4.53;69.91;96381.31;5070571;28;20612;-61
2023/12/23 10:40:48;;;;;;;6.07;3.10;;;;;;;4.53;70.08;96385.63;5070774;28;20134;-62
2023/12/23 10:43:15;;;;;;;4.30;2.38;;;;;;;4.52;69.85;96384.78;5068318;28;20028;-62
2023/12/23 10:45:49;;;;;;;5.30;2.15;;;;;;;4.40;68.55;96377.84;5070633;28;20036;-63
2023/12/23 10:48:16;;;;;;;3.55;1.67;;;;;;;4.35;67.62;96384.19;5056877;28;20040;-61
2023/12/23 10:50:46;;;;;;;4.00;2.30;;;;;;;4.25;67.45;96387.31;5077595;28;20036;-62
2023/12/23 10:53:14;;;;;;;2.83;1.90;;;;;;;4.24;67.54;96382.28;5083958;28;20147;-61
2023/12/23 10:55:40;;;;;;;2.42;1.52;;;;;;;3.99;67.38;96347.00;5085834;28;20040;-61
2023/12/23 10:58:12;;;;;;;2.33;1.80;;;;;;;4.18;67.35;96382.69;5084944;28;20127;-61
2023/12/23 11:00:38;;;;;;;1.67;1.38;;;;;;;4.13;66.87;96384.72;5082646;28;20038;-61
2023/12/23 11:03:05;;;;;;;2.30;1.10;;;;;;;4.10;67.09;96390.84;5084163;28;20089;-62
2023/12/23 11:05:33;;;;;;;2.75;1.70;;;;;;;3.78;67.11;96336.28;5085061;28;20055;-62
2023/12/23 11:08:01;;;;;;;3.03;1.77;;;;;;;4.03;66.98;96389.56;5082963;28;20043;-62
2023/12/23 11:10:29;;;;;;;2.67;1.50;;;;;;;3.58;67.23;96317.84;5083784;28;20450;-62
2023/12/23 11:12:56;;;;;;;2.53;1.77;;;;;;;3.77;67.53;96350.03;5083414;28;20046;-60
2023/12/23 11:15:22;;;;;;;1.55;1.35;;;;;;;3.97;67.97;96396.84;5067755;28;20364;-62
2023/12/23 11:17:48;;;;;;;2.13;1.55;;;;;;;3.97;68.36;96392.53;5074855;28;20050;-62
2023/12/23 11:20:32;;;;;;;3.72;2.30;;;;;;;4.03;68.73;96399.84;5071857;28;20059;-62
2023/12/23 11:23:26;;;;;;;5.80;3.20;;;;;;;4.19;68.76;96392.03;5081230;28;20055;-60
2023/12/23 11:25:53;;;;;;;1.83;1.52;;;;;;;4.10;68.46;96403.69;5087146;28;20089;-62
2023/12/23 11:28:19;;;;;;;6.10;2.40;;;;;;;4.08;68.53;96408.09;5075992;28;20036;-61
2023/12/23 11:30:55;;;;;;;2.95;2.13;;;;;;;4.11;69.34;96409.66;5075308;28;20040;-62
2023/12/23 11:33:26;;;;;;;6.82;2.03;;;;;;;4.06;69.06;96420.22;5075824;28;20032;-62